createdAt,value
2023-04-28T00:00:07.893Z,4.40
2023-04-28T00:02:35.475Z,4.30
2023-04-28T00:05:03.785Z,4.20
2023-04-28T00:07:31.809Z,4.10
2023-04-28T00:09:59.658Z,4.10
2023-04-28T00:12:27.239Z,4.10
2023-04-28T00:14:54.826Z,4.00
2023-04-28T00:17:22.382Z,4.10
2023-04-28T00:19:50.701Z,4.10
2023-04-28T00:22:18.724Z,4.10
2023-04-28T00:24:46.498Z,4.00
2023-04-28T00:27:13.990Z,3.90
2023-04-28T00:29:41.566Z,4.00
2023-04-28T00:32:09.374Z,4.00
2023-04-28T00:34:37.538Z,4.10
2023-04-28T00:37:05.268Z,4.00
2023-04-28T00:39:32.850Z,4.00
2023-04-28T00:42:00.383Z,3.90
2023-04-28T00:44:27.997Z,3.80
2023-04-28T00:46:56.246Z,3.80
2023-04-28T00:49:23.842Z,3.80
2023-04-28T00:51:52.457Z,3.70
2023-04-28T00:54:20.013Z,3.80
2023-04-28T00:56:49.151Z,3.70
2023-04-28T00:59:16.907Z,3.70
2023-04-28T01:01:44.591Z,3.70
2023-04-28T01:04:12.480Z,3.70
2023-04-28T01:06:43.852Z,3.80
2023-04-28T01:09:11.383Z,3.90
2023-04-28T01:11:39.429Z,3.90
2023-04-28T01:14:18.411Z,4.00
2023-04-28T01:16:47.464Z,4.00
2023-04-28T01:19:24.358Z,3.90
2023-04-28T01:21:53.514Z,3.90
2023-04-28T01:24:22.612Z,3.90
2023-04-28T01:26:51.172Z,3.90
2023-04-28T01:29:18.890Z,3.90
2023-04-28T01:31:46.515Z,3.90
2023-04-28T01:34:14.422Z,3.90
2023-04-28T01:36:43.105Z,3.70
2023-04-28T01:39:11.680Z,3.70
2023-04-28T01:41:41.517Z,3.60
2023-04-28T01:44:09.166Z,3.70
2023-04-28T01:46:36.961Z,3.60
2023-04-28T01:49:04.864Z,3.50
2023-04-28T01:51:32.874Z,3.60
2023-04-28T01:54:01.868Z,3.70
2023-04-28T01:56:30.512Z,3.50
2023-04-28T01:58:59.348Z,3.50
2023-04-28T02:01:27.106Z,3.60
2023-04-28T02:03:55.870Z,3.60
2023-04-28T02:06:24.560Z,3.60
2023-04-28T02:08:52.128Z,3.50
2023-04-28T02:11:19.829Z,3.40
2023-04-28T02:13:47.569Z,3.40
2023-04-28T02:16:15.332Z,3.50
2023-04-28T02:18:43.410Z,3.40
2023-04-28T02:21:12.383Z,3.30
2023-04-28T02:23:41.120Z,3.40
2023-04-28T02:26:08.723Z,3.30
2023-04-28T02:28:37.071Z,3.30
2023-04-28T02:31:11.368Z,3.20
2023-04-28T02:33:39.199Z,3.20
2023-04-28T02:36:07.771Z,3.10
2023-04-28T02:38:35.557Z,3.20
2023-04-28T02:41:05.317Z,3.30
2023-04-28T02:43:33.849Z,3.30
2023-04-28T02:46:04.262Z,3.30
2023-04-28T02:48:33.119Z,3.10
2023-04-28T02:51:00.674Z,3.20
2023-04-28T02:53:28.665Z,3.10
2023-04-28T02:55:56.318Z,3.00
2023-04-28T02:58:23.857Z,3.00
2023-04-28T03:00:51.499Z,3.20
2023-04-28T03:03:19.277Z,3.10
2023-04-28T03:05:47.153Z,2.90
2023-04-28T03:08:15.104Z,2.90
2023-04-28T03:10:43.665Z,2.90
2023-04-28T03:28:24.011Z,2.90
2023-04-28T03:30:51.981Z,3.10
2023-04-28T03:33:20.296Z,3.00
2023-04-28T03:35:48.305Z,3.00
2023-04-28T03:38:16.490Z,2.90
2023-04-28T03:40:44.283Z,3.00
2023-04-28T03:43:11.989Z,3.00
2023-04-28T03:45:45.990Z,3.00
2023-04-28T03:48:13.655Z,2.90
2023-04-28T03:50:42.545Z,3.00
2023-04-28T03:53:10.294Z,2.90
2023-04-28T03:55:39.003Z,2.90
2023-04-28T03:58:06.545Z,3.10
2023-04-28T04:00:35.319Z,3.20
2023-04-28T04:03:03.089Z,3.20
2023-04-28T04:05:31.019Z,3.20
2023-04-28T04:07:58.706Z,3.30
2023-04-28T04:10:26.277Z,3.20
2023-04-28T04:12:54.058Z,3.30
2023-04-28T04:15:21.609Z,3.50
2023-04-28T04:17:49.808Z,3.60
2023-04-28T04:20:17.743Z,3.60
2023-04-28T04:22:47.037Z,3.70
2023-04-28T04:25:15.711Z,3.80
2023-04-28T04:27:45.074Z,3.90
2023-04-28T04:30:12.909Z,4.00
2023-04-28T04:32:40.563Z,4.10
2023-04-28T04:35:09.872Z,4.30
2023-04-28T04:37:37.908Z,4.60
2023-04-28T04:40:08.956Z,4.80
2023-04-28T04:42:43.433Z,5.00
2023-04-28T04:45:18.293Z,5.30
2023-04-28T04:47:46.075Z,5.50
2023-04-28T04:50:14.176Z,5.70
2023-04-28T04:52:41.806Z,6.00
2023-04-28T04:55:11.348Z,6.30
2023-04-28T04:57:41.556Z,6.70
2023-04-28T05:00:21.114Z,7.00
2023-04-28T05:02:49.006Z,7.40
2023-04-28T05:05:21.740Z,7.70
2023-04-28T05:08:06.047Z,8.00
2023-04-28T05:10:34.481Z,8.20
2023-04-28T05:13:03.909Z,8.40
2023-04-28T05:15:31.645Z,8.50
2023-04-28T05:18:19.182Z,8.50
2023-04-28T05:20:46.732Z,8.60
2023-04-28T05:23:15.625Z,8.90
2023-04-28T05:25:43.349Z,9.20
2023-04-28T05:28:11.264Z,9.60
2023-04-28T05:30:39.029Z,9.60
2023-04-28T05:33:06.734Z,10.10
2023-04-28T05:35:34.622Z,10.30
2023-04-28T05:38:02.647Z,10.30
2023-04-28T05:40:30.500Z,10.30
2023-04-28T05:42:58.126Z,10.10
2023-04-28T05:45:25.933Z,10.40
2023-04-28T05:47:55.067Z,10.70
2023-04-28T05:50:23.304Z,10.40
2023-04-28T05:52:51.716Z,10.80
2023-04-28T05:55:19.484Z,10.30
2023-04-28T05:57:53.151Z,10.70
2023-04-28T06:00:22.149Z,10.70
2023-04-28T06:02:50.726Z,11.00
2023-04-28T06:05:18.717Z,10.80
2023-04-28T06:07:50.062Z,10.80
2023-04-28T06:10:18.835Z,10.90
2023-04-28T06:12:46.385Z,10.50
2023-04-28T06:15:14.583Z,10.80
2023-04-28T06:17:42.807Z,11.20
2023-04-28T06:20:13.290Z,11.50
2023-04-28T06:22:41.632Z,11.60
2023-04-28T06:25:09.741Z,11.40
2023-04-28T06:27:44.865Z,11.10
2023-04-28T06:30:24.646Z,10.90
2023-04-28T06:32:52.577Z,11.00
2023-04-28T06:35:20.333Z,10.90
2023-04-28T06:37:47.893Z,10.80
2023-04-28T06:40:16.105Z,10.80
2023-04-28T06:42:50.543Z,10.50
2023-04-28T06:45:24.270Z,10.50
2023-04-28T06:47:53.126Z,10.70
2023-04-28T06:50:20.837Z,11.00
2023-04-28T06:52:48.494Z,11.10
2023-04-28T06:55:19.907Z,11.30
2023-04-28T06:57:47.554Z,11.60
2023-04-28T07:00:16.152Z,11.60
2023-04-28T07:02:44.070Z,11.70
2023-04-28T07:05:13.081Z,11.60
2023-04-28T07:07:42.066Z,11.50
2023-04-28T07:10:10.854Z,11.60
2023-04-28T07:12:38.643Z,11.50
2023-04-28T07:15:07.515Z,11.50
2023-04-28T07:17:36.012Z,11.50
2023-04-28T07:20:05.367Z,11.40
2023-04-28T07:22:33.134Z,11.60
2023-04-28T07:25:00.810Z,11.70
2023-04-28T07:27:28.430Z,12.00
2023-04-28T07:29:56.077Z,11.70
2023-04-28T07:32:24.372Z,11.60
2023-04-28T07:34:52.097Z,11.30
2023-04-28T07:37:19.790Z,11.40
2023-04-28T07:39:47.763Z,11.70
2023-04-28T07:42:15.378Z,11.50
2023-04-28T07:44:42.952Z,11.30
2023-04-28T07:47:11.097Z,11.50
2023-04-28T07:49:38.967Z,12.10
2023-04-28T07:52:06.847Z,11.80
2023-04-28T07:54:36.903Z,12.10
2023-04-28T07:57:06.245Z,12.40
2023-04-28T07:59:35.011Z,12.60
2023-04-28T08:02:02.738Z,12.50
2023-04-28T08:04:32.403Z,12.40
2023-04-28T08:07:00.862Z,12.30
2023-04-28T08:09:28.491Z,12.50
2023-04-28T08:11:56.281Z,12.80
2023-04-28T08:14:23.890Z,13.30
2023-04-28T08:16:52.103Z,12.60
2023-04-28T08:19:20.207Z,12.80
2023-04-28T08:21:48.426Z,12.60
2023-04-28T08:24:16.256Z,12.90
2023-04-28T08:26:44.231Z,12.90
2023-04-28T08:29:12.564Z,13.50
2023-04-28T08:31:40.394Z,13.50
2023-04-28T08:34:08.156Z,13.60
2023-04-28T08:36:35.792Z,13.60
2023-04-28T08:39:04.282Z,13.40
2023-04-28T08:41:33.242Z,14.00
2023-04-28T08:44:00.939Z,13.90
2023-04-28T08:46:29.297Z,13.90
2023-04-28T08:49:01.906Z,13.90
2023-04-28T08:51:44.517Z,13.80
2023-04-28T08:54:26.205Z,13.60
2023-04-28T08:56:57.094Z,13.90
2023-04-28T08:59:25.044Z,14.30
2023-04-28T09:01:52.724Z,14.80
2023-04-28T09:04:21.456Z,14.40
2023-04-28T09:06:49.678Z,14.50
2023-04-28T09:09:31.711Z,14.60
2023-04-28T09:12:04.108Z,14.90
2023-04-28T09:14:34.597Z,14.90
2023-04-28T09:17:03.651Z,15.00
2023-04-28T09:19:36.360Z,15.00
2023-04-28T09:22:17.726Z,14.70
2023-04-28T09:24:53.474Z,14.60
2023-04-28T09:27:28.306Z,14.80
2023-04-28T09:29:56.377Z,15.00
2023-04-28T09:32:28.184Z,15.00
2023-04-28T09:34:59.893Z,15.00
2023-04-28T09:37:31.900Z,14.90
2023-04-28T09:40:08.777Z,15.10
2023-04-28T09:42:43.081Z,14.70
2023-04-28T09:45:15.607Z,15.10
2023-04-28T09:47:46.334Z,15.60
2023-04-28T09:50:17.523Z,15.60
2023-04-28T09:52:57.333Z,15.20
2023-04-28T09:55:25.841Z,15.30
2023-04-28T09:57:55.125Z,15.10
2023-04-28T10:00:23.917Z,14.90
2023-04-28T10:02:52.812Z,15.30
2023-04-28T10:05:22.228Z,15.50
2023-04-28T10:07:50.353Z,15.50
2023-04-28T10:10:18.753Z,15.00
2023-04-28T10:12:46.745Z,15.40
2023-04-28T10:15:14.502Z,15.50
2023-04-28T10:17:42.394Z,15.60
2023-04-28T10:20:11.195Z,15.50
2023-04-28T10:23:16.659Z,15.20
2023-04-28T10:25:49.613Z,15.20
2023-04-28T10:28:18.341Z,15.20
2023-04-28T10:31:12.758Z,15.70
2023-04-28T10:33:41.927Z,16.20
2023-04-28T10:36:09.926Z,16.10
2023-04-28T10:39:11.167Z,15.20
2023-04-28T10:41:39.104Z,15.60
2023-04-28T10:44:28.917Z,15.80
2023-04-28T10:47:10.736Z,16.10
2023-04-28T10:49:59.628Z,15.80
2023-04-28T10:52:33.357Z,15.70
2023-04-28T10:55:33.789Z,15.50
2023-04-28T10:58:17.446Z,16.10
2023-04-28T11:00:47.789Z,15.70
2023-04-28T11:03:51.162Z,15.80
2023-04-28T11:06:29.357Z,16.10
2023-04-28T11:08:58.149Z,15.80
2023-04-28T11:11:26.753Z,15.50
2023-04-28T11:13:56.746Z,15.70
2023-04-28T11:16:26.125Z,16.10
2023-04-28T11:19:15.237Z,16.20
2023-04-28T11:21:43.434Z,15.80
2023-04-28T11:24:11.617Z,15.90
2023-04-28T11:26:39.638Z,16.00
2023-04-28T11:29:07.758Z,16.00
2023-04-28T11:31:35.492Z,15.70
2023-04-28T11:34:08.010Z,15.80
2023-04-28T11:36:37.846Z,16.30
2023-04-28T11:39:10.674Z,16.50
2023-04-28T11:41:43.528Z,16.80
2023-04-28T11:44:16.532Z,17.00
2023-04-28T11:46:53.825Z,16.70
2023-04-28T11:49:24.735Z,16.30
2023-04-28T11:51:52.869Z,15.90
2023-04-28T11:54:28.909Z,15.70
2023-04-28T11:56:58.407Z,16.70
2023-04-28T11:59:31.315Z,17.00
2023-04-28T12:02:01.821Z,16.80
2023-04-28T12:04:38.027Z,16.80
2023-04-28T12:07:17.033Z,16.70
2023-04-28T12:09:49.050Z,16.80
2023-04-28T12:12:45.282Z,16.60
2023-04-28T12:15:18.831Z,16.40
2023-04-28T12:17:48.687Z,16.30
2023-04-28T12:20:39.456Z,16.70
2023-04-28T12:23:08.728Z,16.70
2023-04-28T12:25:47.409Z,16.40
2023-04-28T12:28:15.470Z,16.10
2023-04-28T12:30:43.675Z,16.40
2023-04-28T12:33:25.245Z,16.10
2023-04-28T12:35:55.433Z,16.20
2023-04-28T12:38:24.400Z,16.40
2023-04-28T12:40:52.605Z,16.20
2023-04-28T12:43:23.289Z,16.00
2023-04-28T12:45:53.526Z,16.00
2023-04-28T12:48:24.159Z,15.80
2023-04-28T12:50:52.419Z,16.00
2023-04-28T12:53:20.223Z,16.30
2023-04-28T12:55:47.940Z,16.60
2023-04-28T12:58:15.978Z,17.00
2023-04-28T13:00:43.707Z,17.00
2023-04-28T13:03:11.583Z,16.80
2023-04-28T13:05:39.589Z,17.40
2023-04-28T13:08:07.194Z,17.10
2023-04-28T13:10:34.739Z,16.60
2023-04-28T13:13:02.279Z,16.40
2023-04-28T13:15:31.034Z,16.10
2023-04-28T13:17:59.863Z,16.30
2023-04-28T13:20:27.561Z,16.20
2023-04-28T13:22:55.099Z,16.00
2023-04-28T13:25:22.773Z,15.80
2023-04-28T13:27:50.360Z,15.80
2023-04-28T13:30:17.988Z,15.80
2023-04-28T13:32:45.642Z,16.00
2023-04-28T13:35:13.254Z,16.30
2023-04-28T13:37:45.815Z,16.60
2023-04-28T13:40:13.703Z,16.60
2023-04-28T13:42:41.338Z,16.20
2023-04-28T13:45:09.229Z,16.40
2023-04-28T13:47:36.858Z,16.40
2023-04-28T13:50:04.698Z,16.10
2023-04-28T13:52:32.537Z,16.10
2023-04-28T13:55:00.129Z,16.00
2023-04-28T13:57:27.804Z,16.10
2023-04-28T13:59:55.535Z,16.20
2023-04-28T14:02:24.719Z,16.10
2023-04-28T14:04:53.843Z,16.00
2023-04-28T14:07:21.562Z,16.10
2023-04-28T14:09:50.145Z,16.10
2023-04-28T14:12:17.708Z,16.10
2023-04-28T14:14:48.703Z,15.90
2023-04-28T14:17:16.455Z,15.90
2023-04-28T14:19:44.719Z,15.80
2023-04-28T14:22:12.519Z,15.90
2023-04-28T14:24:40.077Z,15.80
2023-04-28T14:27:08.548Z,15.70
2023-04-28T14:29:36.193Z,15.70
2023-04-28T14:32:03.790Z,15.70
2023-04-28T14:34:31.770Z,15.70
2023-04-28T14:36:59.540Z,15.90
2023-04-28T14:39:27.126Z,15.90
2023-04-28T14:41:54.734Z,15.90
2023-04-28T14:44:22.373Z,16.10
2023-04-28T14:46:50.446Z,16.00
2023-04-28T14:49:18.115Z,15.70
2023-04-28T14:51:46.697Z,15.60
2023-04-28T14:54:14.277Z,15.60
2023-04-28T14:56:41.897Z,15.80
2023-04-28T14:59:10.632Z,15.90
2023-04-28T15:01:38.298Z,15.80
2023-04-28T15:04:06.160Z,15.90
2023-04-28T15:06:34.256Z,15.70
2023-04-28T15:09:01.858Z,15.40
2023-04-28T15:11:29.590Z,15.30
2023-04-28T15:13:57.238Z,15.30
2023-04-28T15:16:24.946Z,15.30
2023-04-28T15:18:52.623Z,15.10
2023-04-28T15:21:20.585Z,15.20
2023-04-28T15:23:48.413Z,15.20
2023-04-28T15:26:15.999Z,15.30
2023-04-28T15:28:43.567Z,15.30
2023-04-28T15:31:11.257Z,15.20
2023-04-28T15:33:39.409Z,15.20
2023-04-28T15:36:08.613Z,15.20
2023-04-28T15:38:36.575Z,15.10
2023-04-28T15:41:04.361Z,15.10
2023-04-28T15:43:32.001Z,15.10
2023-04-28T15:46:01.038Z,15.10
2023-04-28T15:48:28.649Z,15.10
2023-04-28T15:50:56.368Z,15.10
2023-04-28T15:53:24.951Z,15.10
2023-04-28T15:55:52.642Z,15.10
2023-04-28T15:58:20.472Z,14.90
2023-04-28T16:00:48.679Z,15.00
2023-04-28T16:03:16.951Z,14.70
2023-04-28T16:05:45.721Z,14.80
2023-04-28T16:08:14.390Z,14.70
2023-04-28T16:10:42.569Z,14.70
2023-04-28T16:13:13.039Z,14.70
2023-04-28T16:15:41.982Z,14.60
2023-04-28T16:18:10.257Z,14.50
2023-04-28T16:20:38.252Z,14.60
2023-04-28T16:23:07.409Z,14.40
2023-04-28T16:25:36.007Z,14.40
2023-04-28T16:28:04.065Z,14.40
2023-04-28T16:30:32.882Z,14.30
2023-04-28T16:33:00.542Z,14.30
2023-04-28T16:35:28.372Z,14.30
2023-04-28T16:37:56.126Z,14.30
2023-04-28T16:40:24.023Z,14.20
2023-04-28T16:42:51.682Z,14.30
2023-04-28T16:45:19.480Z,14.10
2023-04-28T16:47:47.249Z,14.20
2023-04-28T16:50:15.254Z,14.20
2023-04-28T16:52:42.935Z,14.20
2023-04-28T16:55:10.936Z,14.10
2023-04-28T16:57:38.551Z,14.10
2023-04-28T17:00:06.820Z,14.00
2023-04-28T17:02:34.735Z,14.10
2023-04-28T17:05:02.611Z,14.10
2023-04-28T17:07:30.215Z,14.00
2023-04-28T17:09:57.955Z,13.90
2023-04-28T17:12:25.704Z,13.90
2023-04-28T17:14:54.458Z,14.00
2023-04-28T17:17:22.249Z,14.00
2023-04-28T17:19:50.200Z,13.90
2023-04-28T17:22:17.995Z,13.90
2023-04-28T17:24:45.680Z,13.80
2023-04-28T17:27:14.774Z,13.70
2023-04-28T17:29:43.425Z,13.60
2023-04-28T17:32:11.250Z,13.60
2023-04-28T17:34:38.898Z,13.50
2023-04-28T17:37:06.901Z,13.60
2023-04-28T17:39:34.689Z,13.60
2023-04-28T17:42:02.730Z,13.50
2023-04-28T17:44:30.752Z,13.40
2023-04-28T17:46:58.697Z,13.40
2023-04-28T17:49:26.933Z,13.30
2023-04-28T17:51:55.071Z,13.20
2023-04-28T17:54:23.191Z,13.10
2023-04-28T17:56:51.907Z,13.10
2023-04-28T17:59:19.806Z,12.90
2023-04-28T18:01:48.189Z,12.80
2023-04-28T18:04:15.837Z,12.90
2023-04-28T18:06:44.586Z,12.90
2023-04-28T18:09:12.594Z,12.70
2023-04-28T18:11:40.632Z,12.60
2023-04-28T18:14:09.078Z,12.60
2023-04-28T18:16:37.283Z,12.50
2023-04-28T18:19:04.924Z,12.40
2023-04-28T18:21:34.335Z,12.30
2023-04-28T18:24:02.874Z,12.30
2023-04-28T18:26:30.862Z,12.10
2023-04-28T18:28:58.818Z,12.10
2023-04-28T18:31:27.446Z,12.00
2023-04-28T18:33:55.647Z,11.60
2023-04-28T18:36:24.339Z,11.60
2023-04-28T18:38:52.666Z,11.60
2023-04-28T18:41:22.053Z,11.60
2023-04-28T18:43:50.552Z,11.20
2023-04-28T18:46:18.618Z,11.30
2023-04-28T18:48:49.280Z,11.40
2023-04-28T18:51:17.945Z,11.40
2023-04-28T18:53:46.389Z,11.40
2023-04-28T18:56:14.816Z,11.10
2023-04-28T18:58:43.389Z,10.90
2023-04-28T19:01:18.855Z,11.00
2023-04-28T19:03:47.853Z,10.90
2023-04-28T19:06:18.136Z,11.00
2023-04-28T19:08:46.789Z,11.00
2023-04-28T19:11:14.960Z,10.90
2023-04-28T19:13:45.360Z,11.00
2023-04-28T19:16:13.809Z,10.90
2023-04-28T19:18:43.657Z,10.90
2023-04-28T19:21:14.464Z,10.80
2023-04-28T19:23:43.970Z,10.80
2023-04-28T19:26:12.850Z,10.70
2023-04-28T19:28:40.837Z,10.80
2023-04-28T19:31:09.791Z,10.70
2023-04-28T19:33:38.424Z,10.70
2023-04-28T19:36:10.463Z,10.50
2023-04-28T19:38:40.534Z,10.50
2023-04-28T19:41:09.060Z,10.50
2023-04-28T19:43:37.938Z,10.40
2023-04-28T19:46:06.985Z,10.30
2023-04-28T19:48:35.451Z,10.50
2023-04-28T19:51:03.876Z,10.50
2023-04-28T19:53:32.279Z,10.50
2023-04-28T19:56:02.107Z,10.50
2023-04-28T19:58:31.451Z,10.30
2023-04-28T20:00:59.821Z,10.40
2023-04-28T20:03:29.767Z,10.30
2023-04-28T20:05:58.389Z,10.30
2023-04-28T20:08:28.467Z,10.40
2023-04-28T20:10:57.364Z,10.40
2023-04-28T20:13:27.284Z,10.00
2023-04-28T20:15:56.361Z,10.10
2023-04-28T20:18:25.781Z,10.00
2023-04-28T20:20:54.035Z,10.10
2023-04-28T20:23:22.075Z,10.20
2023-04-28T20:25:50.521Z,10.10
2023-04-28T20:28:18.725Z,10.20
2023-04-28T20:30:47.176Z,10.20
2023-04-28T20:33:16.474Z,9.90
2023-04-28T20:35:45.254Z,10.10
2023-04-28T20:38:13.136Z,10.00
2023-04-28T20:40:41.131Z,9.70
2023-04-28T20:43:09.024Z,9.60
2023-04-28T20:45:36.706Z,9.80
2023-04-28T20:48:04.558Z,9.90
2023-04-28T20:50:34.091Z,9.90
2023-04-28T20:53:01.881Z,9.70
2023-04-28T20:55:29.547Z,9.70
2023-04-28T20:57:57.255Z,9.60
2023-04-28T21:00:24.843Z,9.60
2023-04-28T21:02:52.701Z,9.60
2023-04-28T21:05:21.064Z,9.50
2023-04-28T21:07:48.895Z,9.40
2023-04-28T21:10:16.893Z,9.50
2023-04-28T21:12:45.558Z,9.60
2023-04-28T21:15:13.568Z,9.70
2023-04-28T21:17:41.274Z,9.70
2023-04-28T21:20:09.989Z,9.80
2023-04-28T21:22:37.697Z,9.80
2023-04-28T21:25:07.126Z,9.70
2023-04-28T21:27:34.789Z,9.70
2023-04-28T21:30:02.598Z,9.60
2023-04-28T21:32:30.853Z,9.60
2023-04-28T21:34:58.946Z,9.70
2023-04-28T21:37:26.927Z,9.90
2023-04-28T21:39:56.401Z,9.70
2023-04-28T21:42:24.324Z,9.70
2023-04-28T21:44:52.135Z,9.60
2023-04-28T21:47:19.819Z,9.70
2023-04-28T21:49:48.009Z,9.80
2023-04-28T21:52:16.458Z,9.90
2023-04-28T21:54:44.071Z,9.80
2023-04-28T21:57:11.770Z,9.80
2023-04-28T21:59:39.424Z,9.80
2023-04-28T22:02:07.402Z,9.70
2023-04-28T22:04:35.672Z,9.80
2023-04-28T22:07:04.106Z,9.80
2023-04-28T22:09:33.328Z,9.80
2023-04-28T22:12:00.865Z,9.70
2023-04-28T22:14:40.339Z,9.60
2023-04-28T22:17:09.805Z,9.60
2023-04-28T22:19:37.639Z,9.70
2023-04-28T22:22:05.613Z,9.80
2023-04-28T22:24:33.243Z,9.70
2023-04-28T22:27:00.924Z,9.60
2023-04-28T22:29:28.757Z,9.70
2023-04-28T22:31:56.440Z,9.60
2023-04-28T22:34:24.220Z,9.70
2023-04-28T22:36:51.830Z,9.70
2023-04-28T22:39:19.570Z,9.70
2023-04-28T22:41:47.214Z,9.70
2023-04-28T22:44:14.806Z,9.70
2023-04-28T22:46:42.605Z,9.70
2023-04-28T22:49:10.284Z,9.50
2023-04-28T22:51:38.074Z,9.40
2023-04-28T22:54:05.904Z,9.30
2023-04-28T22:56:33.521Z,9.30
2023-04-28T22:59:01.251Z,9.50
2023-04-28T23:01:29.141Z,9.50
2023-04-28T23:03:56.943Z,9.50
2023-04-28T23:06:25.053Z,9.50
2023-04-28T23:08:52.619Z,9.40
2023-04-28T23:11:20.270Z,9.40
2023-04-28T23:13:47.868Z,9.50
2023-04-28T23:16:15.856Z,9.50
2023-04-28T23:18:43.783Z,9.30
2023-04-28T23:21:13.998Z,9.50
2023-04-28T23:23:41.627Z,9.50
2023-04-28T23:26:09.182Z,9.40
2023-04-28T23:28:37.019Z,9.20
2023-04-28T23:31:05.129Z,9.40
2023-04-28T23:33:32.818Z,9.30
2023-04-28T23:36:00.392Z,9.20
2023-04-28T23:38:28.169Z,9.20
2023-04-28T23:40:55.787Z,9.30
2023-04-28T23:43:23.512Z,9.40
2023-04-28T23:45:51.613Z,9.40
2023-04-28T23:48:19.158Z,9.30
2023-04-28T23:50:47.020Z,9.40
2023-04-28T23:53:14.915Z,9.40
2023-04-28T23:55:42.677Z,9.30
2023-04-28T23:58:10.344Z,9.10
